createdAt,value
2023-03-28T17:26:20.450Z,96513.34
2023-03-28T17:31:28.117Z,96513.56
2023-03-28T17:36:36.621Z,96507.28
2023-03-28T17:41:46.833Z,96494.63
2023-03-28T17:46:54.594Z,96485.25
2023-03-28T17:52:03.086Z,96479.72
2023-03-28T17:57:13.382Z,96481.13
2023-03-28T18:02:21.113Z,96486.09
2023-03-28T18:07:28.789Z,96488.13
2023-03-28T18:12:39.728Z,96471.31
2023-03-28T18:17:47.592Z,96468.72
2023-03-28T18:22:55.300Z,96467.94
2023-03-28T18:28:05.614Z,96467.38
2023-03-28T18:33:13.820Z,96461.78
2023-03-28T18:38:23.226Z,96456.25
2023-03-28T18:43:34.607Z,96451.16
2023-03-28T18:48:43.372Z,96458.78
2023-03-28T18:53:51.181Z,96445.81
2023-03-28T18:59:02.409Z,96442.72
2023-03-28T19:04:12.152Z,96451.53
2023-03-28T19:09:20.667Z,96439.47
2023-03-28T19:14:31.469Z,96446.53
2023-03-28T19:19:39.678Z,96455.91
2023-03-28T19:24:47.728Z,96453.56
2023-03-28T19:29:58.252Z,96470.09
2023-03-28T19:35:06.790Z,96460.50
2023-03-28T19:40:16.868Z,96482.16
2023-03-28T19:45:27.797Z,96472.19
2023-03-28T19:50:36.893Z,96473.75
2023-03-28T19:55:44.617Z,96455.69
2023-03-28T20:00:55.393Z,96470.50
2023-03-28T20:06:05.949Z,96463.06
2023-03-28T20:11:15.260Z,96453.63
2023-03-28T20:16:25.812Z,96446.81
2023-03-28T20:21:33.551Z,96452.09
2023-03-28T20:26:41.829Z,96441.56
2023-03-28T20:31:52.295Z,96461.50
2023-03-28T20:37:00.122Z,96463.38
2023-03-28T20:42:09.295Z,96472.97
2023-03-28T20:47:25.293Z,96409.75
2023-03-28T20:52:32.934Z,96365.53
2023-03-28T20:57:42.529Z,96403.09
2023-03-28T21:02:55.411Z,96427.56
2023-03-28T21:08:04.529Z,96380.06
2023-03-28T21:13:13.133Z,96363.81
2023-03-28T21:18:23.356Z,96359.34
2023-03-28T21:23:30.974Z,96363.22
2023-03-28T21:28:38.945Z,96381.38
2023-03-28T21:33:49.911Z,96398.09
2023-03-28T21:38:58.597Z,96399.38
2023-03-28T21:44:06.265Z,96400.44
2023-03-28T21:49:18.291Z,96388.84
2023-03-28T21:54:26.083Z,96390.56
2023-03-28T21:59:33.725Z,96378.06
2023-03-28T22:04:43.951Z,96398.31
2023-03-28T22:09:51.699Z,96400.50
2023-03-28T22:14:59.842Z,96429.69
2023-03-28T22:20:11.826Z,96449.31
2023-03-28T22:25:19.941Z,96471.91
2023-03-28T22:30:27.921Z,96481.47
2023-03-28T22:35:38.681Z,96499.25
2023-03-28T22:40:46.643Z,96480.56
2023-03-28T22:45:54.373Z,96460.31
2023-03-28T22:51:04.866Z,96463.75
2023-03-28T22:56:12.706Z,96466.25
2023-03-28T23:01:23.315Z,96445.56
2023-03-28T23:06:34.297Z,96442.19
2023-03-28T23:11:42.588Z,96421.66
2023-03-28T23:16:50.284Z,96421.84
2023-03-28T23:22:00.682Z,96409.81
2023-03-28T23:27:09.170Z,96370.44
2023-03-28T23:32:16.884Z,96326.47
2023-03-28T23:37:27.725Z,96331.72
2023-03-28T23:42:35.524Z,96330.00
2023-03-28T23:47:43.369Z,96329.25
2023-03-28T23:52:53.834Z,96315.38
2023-03-28T23:58:04.506Z,96307.34
